Time;durP1;ratioP1;P1;durP2;ratioP2;P2;SDS_P1;SDS_P2;PMS_P1;PMS_P2;Temp;Humidity;BMP_temperature;BMP_pressure;BME280_temperature;BME280_humidity;BME280_pressure;Samples;Min_cycle;Max_cycle;Signal;HPM_P1;HPM_P2
2023/10/02 00:01:23;;;;;;;9.93;7.13;;;;;;;19.96;59.34;97354.50;5048176;28;20208;-84
2023/10/02 00:06:37;;;;;;;9.60;7.40;;;;;;;19.84;60.08;97357.25;5029706;28;20665;-81
2023/10/02 00:09:04;;;;;;;10.20;7.13;;;;;;;19.92;60.10;97352.22;5028988;28;20194;-85
2023/10/02 00:11:41;;;;;;;10.77;7.13;;;;;;;20.00;59.90;97369.06;5049060;28;20197;-82
2023/10/02 00:14:18;;;;;;;10.00;7.20;;;;;;;19.87;60.17;97347.31;5046246;28;20197;-83
2023/10/02 00:17:00;;;;;;;10.47;7.50;;;;;;;19.77;60.42;97351.63;5048597;28;20285;-84
2023/10/02 00:19:49;;;;;;;11.57;7.03;;;;;;;19.84;60.21;97349.34;5048454;28;20689;-77
2023/10/02 00:25:10;;;;;;;8.57;6.70;;;;;;;19.70;60.26;97321.50;5048583;28;20201;-75
2023/10/02 00:27:37;;;;;;;9.23;6.97;;;;;;;19.63;61.11;97338.72;5046655;28;20255;-83
2023/10/02 00:30:07;;;;;;;8.33;6.93;;;;;;;19.76;60.32;97343.84;5046608;28;20649;-77
2023/10/02 00:32:40;;;;;;;13.87;7.33;;;;;;;19.72;60.14;97343.22;5048421;28;20201;-84
2023/10/02 00:35:12;;;;;;;11.77;6.60;;;;;;;19.74;60.28;97354.47;5045988;28;20201;-83
2023/10/02 00:37:44;;;;;;;9.57;6.93;;;;;;;19.60;60.84;97348.63;5046566;28;20279;-82
2023/10/02 00:40:15;;;;;;;11.03;7.07;;;;;;;19.60;60.89;97340.75;5046805;28;20271;-77
2023/10/02 00:42:45;;;;;;;9.57;6.50;;;;;;;19.60;60.87;97344.19;5048438;28;20197;-73
2023/10/02 00:45:13;;;;;;;10.63;7.00;;;;;;;19.63;60.71;97340.50;5047380;28;20681;-79
2023/10/02 00:47:45;;;;;;;9.77;7.00;;;;;;;19.61;60.93;97351.13;5045981;28;20200;-78
2023/10/02 00:50:19;;;;;;;10.50;7.30;;;;;;;19.58;61.28;97346.09;5047796;28;20197;-72
2023/10/02 00:53:11;;;;;;;7.40;6.33;;;;;;;19.50;61.20;97356.34;5046921;28;20280;-77
2023/10/02 00:56:34;;;;;;;9.43;6.83;;;;;;;19.36;60.92;97304.03;5047414;28;20197;-77
2023/10/02 00:59:15;;;;;;;9.27;7.27;;;;;;;19.64;60.83;97350.06;5047660;28;21016;-76
2023/10/02 01:01:42;;;;;;;12.00;7.53;;;;;;;19.62;60.85;97354.59;5026859;28;20209;-76
2023/10/02 01:04:10;;;;;;;13.57;7.63;;;;;;;19.49;61.36;97357.31;5028387;28;20205;-86
2023/10/02 01:09:27;;;;;;;11.43;7.60;;;;;;;19.56;61.07;97352.44;5041340;28;20397;-84
2023/10/02 01:11:57;;;;;;;9.20;7.00;;;;;;;19.41;61.19;97344.75;5039471;28;20217;-77
2023/10/02 01:17:17;;;;;;;9.90;7.20;;;;;;;19.51;61.13;97341.44;5047822;28;20302;-79
2023/10/02 01:19:53;;;;;;;11.67;7.50;;;;;;;19.56;60.99;97352.44;5047519;28;20818;-78
2023/10/02 01:22:30;;;;;;;10.30;6.43;;;;;;;19.47;60.86;97348.72;5058016;28;20228;-73
2023/10/02 01:25:14;;;;;;;10.10;6.57;;;;;;;19.44;61.53;97341.91;5046001;28;20212;-73
2023/10/02 01:27:51;;;;;;;11.10;7.80;;;;;;;19.49;61.21;97347.63;5046810;28;20199;-73
2023/10/02 01:30:21;;;;;;;9.77;6.50;;;;;;;19.49;61.11;97350.25;5030485;28;20205;-74
2023/10/02 01:33:06;;;;;;;8.57;6.10;;;;;;;19.38;61.38;97352.03;5047544;28;20301;-73
2023/10/02 01:35:38;;;;;;;11.13;6.43;;;;;;;19.47;61.40;97348.72;5044223;28;20206;-72
2023/10/02 01:38:12;;;;;;;9.47;6.80;;;;;;;19.44;60.69;97331.41;5047368;28;20677;-72
2023/10/02 01:40:54;;;;;;;7.77;6.23;;;;;;;19.48;60.70;97334.63;5045955;28;20287;-73
2023/10/02 01:43:29;;;;;;;10.77;7.07;;;;;;;19.35;61.20;97333.91;5045040;28;20209;-74
2023/10/02 01:46:00;;;;;;;9.13;6.83;;;;;;;19.32;61.21;97334.94;5043982;28;20676;-73
2023/10/02 01:48:40;;;;;;;8.90;7.00;;;;;;;19.20;61.16;97328.00;5043862;28;20584;-73
2023/10/02 01:51:25;;;;;;;9.33;5.37;;;;;;;19.20;61.17;97330.63;5048112;28;20188;-74
2023/10/02 01:53:56;;;;;;;10.27;6.47;;;;;;;19.28;61.14;97333.50;5047479;28;20201;-74
2023/10/02 01:56:26;;;;;;;11.10;6.73;;;;;;;19.37;60.85;97322.31;5049692;28;20196;-75
2023/10/02 01:59:08;;;;;;;8.57;6.40;;;;;;;19.35;60.85;97329.47;5050294;28;20308;-75
2023/10/02 02:01:51;;;;;;;8.47;6.93;;;;;;;19.37;60.54;97330.19;5047516;28;20276;-77
2023/10/02 02:04:22;;;;;;;11.63;6.07;;;;;;;19.43;60.02;97323.66;5048125;28;20193;-75
2023/10/02 02:06:52;;;;;;;9.43;6.10;;;;;;;19.48;59.85;97324.13;5048316;28;20319;-76
2023/10/02 02:09:25;;;;;;;10.00;6.27;;;;;;;19.43;60.23;97327.09;5045491;28;20224;-75
2023/10/02 02:14:57;;;;;;;10.00;6.13;;;;;;;19.33;59.66;97309.50;5024600;28;20237;-76
2023/10/02 02:17:43;;;;;;;8.77;6.23;;;;;;;19.42;60.11;97327.22;5030845;28;20220;-76
2023/10/02 02:20:11;;;;;;;9.27;5.63;;;;;;;19.46;59.74;97326.88;5029263;28;20638;-75
2023/10/02 02:22:42;;;;;;;8.57;5.60;;;;;;;19.42;59.58;97333.31;5030205;28;20598;-76
2023/10/02 02:25:09;;;;;;;10.30;6.50;;;;;;;19.45;59.65;97335.69;5031170;28;20639;-76
2023/10/02 02:27:36;;;;;;;7.93;5.73;;;;;;;19.43;59.78;97344.66;5029615;28;20194;-77
2023/10/02 02:30:10;;;;;;;8.33;5.60;;;;;;;19.25;59.26;97303.97;5030805;28;20197;-77
2023/10/02 02:32:44;;;;;;;8.87;5.60;;;;;;;19.40;59.57;97332.59;5028499;28;20221;-78
2023/10/02 02:35:15;;;;;;;13.03;6.03;;;;;;;19.48;59.26;97340.72;5030552;28;20206;-76
2023/10/02 02:37:43;;;;;;;9.33;5.90;;;;;;;19.41;59.22;97313.22;5028982;28;20631;-76
2023/10/02 02:40:25;;;;;;;7.00;5.47;;;;;;;19.45;58.80;97313.84;5029658;28;20198;-76
2023/10/02 02:42:54;;;;;;;9.27;5.70;;;;;;;19.42;58.89;97346.44;5030351;28;20206;-76
2023/10/02 02:45:28;;;;;;;10.47;5.27;;;;;;;19.47;58.31;97353.97;5029137;28;20589;-75
2023/10/02 02:48:06;;;;;;;10.47;4.93;;;;;;;19.54;58.09;97328.09;5029376;28;20226;-77
2023/10/02 02:50:35;;;;;;;9.50;5.77;;;;;;;19.55;58.17;97356.00;5029840;28;20233;-76
2023/10/02 02:53:21;;;;;;;6.63;5.07;;;;;;;19.44;58.39;97349.78;5029449;28;20260;-76
2023/10/02 02:56:16;;;;;;;13.27;6.10;;;;;;;19.42;57.98;97353.47;5030404;28;20277;-77
2023/10/02 02:58:49;;;;;;;7.20;5.27;;;;;;;19.32;58.46;97360.34;5029104;28;20237;-77
2023/10/02 03:01:22;;;;;;;10.00;5.90;;;;;;;19.36;58.14;97360.03;5028935;28;20190;-77
2023/10/02 03:03:50;;;;;;;6.83;5.17;;;;;;;19.28;58.31;97358.91;5030476;28;20201;-76
2023/10/02 03:06:22;;;;;;;7.37;5.37;;;;;;;19.26;58.13;97361.66;5029027;28;20217;-76
2023/10/02 03:08:53;;;;;;;8.23;5.37;;;;;;;19.24;58.43;97360.94;5030068;28;20555;-76
2023/10/02 03:11:22;;;;;;;8.43;4.97;;;;;;;19.17;57.57;97367.59;5027401;28;20757;-76
2023/10/02 03:13:50;;;;;;;8.73;5.40;;;;;;;19.21;57.95;97363.78;5029951;28;20206;-75
2023/10/02 03:16:28;;;;;;;9.67;5.20;;;;;;;19.19;57.78;97363.06;5037062;28;20225;-74
2023/10/02 03:18:57;;;;;;;10.03;5.10;;;;;;;19.33;57.04;97368.13;5048828;28;20314;-74
2023/10/02 03:21:24;;;;;;;11.70;5.20;;;;;;;19.37;57.20;97369.59;5040132;28;20216;-75
2023/10/02 03:23:54;;;;;;;9.63;4.83;;;;;;;19.49;56.75;97373.91;5028319;28;20312;-75
2023/10/02 03:29:06;;;;;;;8.13;4.93;;;;;;;19.28;56.75;97366.78;5028464;28;20678;-75
2023/10/02 03:31:43;;;;;;;7.50;5.10;;;;;;;19.09;57.00;97356.81;5042043;28;20585;-75
2023/10/02 03:39:51;;;;;;;6.90;4.83;;;;;;;19.29;56.14;97374.53;5049018;28;20228;-78
2023/10/02 03:42:22;;;;;;;8.13;5.50;;;;;;;19.27;56.14;97368.56;5048779;28;20239;-75
2023/10/02 03:44:56;;;;;;;8.03;4.97;;;;;;;19.22;55.80;97375.97;5047857;28;20210;-76
2023/10/02 03:47:27;;;;;;;8.47;4.60;;;;;;;19.29;55.09;97378.94;5048401;28;20292;-76
2023/10/02 03:50:00;;;;;;;5.07;4.20;;;;;;;19.27;55.02;97391.38;5047144;28;20205;-75
2023/10/02 03:52:34;;;;;;;6.87;4.27;;;;;;;19.00;55.10;97364.56;5029565;28;20203;-78
2023/10/02 03:55:15;;;;;;;9.03;4.50;;;;;;;19.26;54.92;97382.66;5034004;28;20209;-75
2023/10/02 03:57:50;;;;;;;6.30;4.60;;;;;;;19.29;54.41;97382.44;5047733;28;20208;-76
2023/10/02 04:02:56;;;;;;;10.50;4.23;;;;;;;19.27;53.77;97388.75;5047199;28;20303;-74
2023/10/02 04:05:42;;;;;;;9.90;3.87;;;;;;;19.30;53.97;97401.66;5048809;28;20197;-74
2023/10/02 04:10:55;;;;;;;8.43;4.50;;;;;;;19.36;53.34;97414.34;5045076;28;20315;-75
2023/10/02 04:13:27;;;;;;;8.27;4.20;;;;;;;19.30;53.55;97420.88;5027230;28;20194;-76
2023/10/02 04:16:28;;;;;;;7.77;4.43;;;;;;;19.19;53.56;97402.44;5027192;28;20713;-75
2023/10/02 04:18:45;;;;;;;8.20;3.93;;;;;;;19.13;53.39;97404.69;5028141;28;20241;-75
2023/10/02 04:21:14;;;;;;;5.40;3.70;;;;;;;19.16;53.44;97422.84;5027706;28;20661;-77
2023/10/02 04:23:45;;;;;;;9.20;4.37;;;;;;;19.14;53.16;97422.97;5028724;28;20202;-78
2023/10/02 04:26:19;;;;;;;7.53;4.17;;;;;;;19.18;52.68;97432.31;5037204;28;20215;-77
2023/10/02 04:28:55;;;;;;;6.90;4.30;;;;;;;19.16;52.68;97428.09;5027258;28;20263;-76
2023/10/02 04:31:34;;;;;;;7.50;3.90;;;;;;;19.03;52.84;97416.81;5028180;28;20236;-75
2023/10/02 04:36:47;;;;;;;8.13;4.13;;;;;;;19.13;52.03;97429.16;5027134;28;20594;-75
2023/10/02 04:42:15;;;;;;;11.87;4.20;;;;;;;18.95;51.62;97430.53;5025043;28;20294;-77
2023/10/02 04:44:48;;;;;;;8.10;4.00;;;;;;;19.05;51.15;97436.78;5027609;28;20209;-76
2023/10/02 04:47:20;;;;;;;7.47;4.20;;;;;;;19.14;50.86;97436.09;5027283;28;20205;-77
2023/10/02 04:53:04;;;;;;;8.43;4.50;;;;;;;19.04;51.30;97444.75;5026506;28;20214;-79
2023/10/02 04:55:43;;;;;;;7.30;4.43;;;;;;;19.10;50.71;97444.31;5026235;28;20626;-74
2023/10/02 04:58:19;;;;;;;8.80;4.30;;;;;;;19.04;50.39;97455.25;5027144;28;20640;-74
2023/10/02 05:03:54;;;;;;;12.00;4.20;;;;;;;18.97;49.90;97439.13;5025885;28;20205;-73
2023/10/02 05:09:19;;;;;;;7.53;3.60;;;;;;;18.94;49.85;97470.81;5027373;28;20235;-77
2023/10/02 05:12:03;;;;;;;9.97;4.30;;;;;;;19.05;50.21;97456.94;5026093;28;20202;-76
2023/10/02 05:14:48;;;;;;;6.93;3.60;;;;;;;19.03;49.79;97470.16;5027417;28;20689;-74
2023/10/02 05:17:17;;;;;;;8.23;4.60;;;;;;;19.23;49.40;97466.91;5025397;28;20241;-76
2023/10/02 05:19:56;;;;;;;8.30;4.37;;;;;;;19.03;49.33;97453.56;5025224;28;20225;-75
2023/10/02 05:22:30;;;;;;;12.77;5.53;;;;;;;19.29;49.13;97478.75;5027248;28;20716;-80
2023/10/02 05:24:58;;;;;;;9.10;4.17;;;;;;;19.11;48.93;97459.94;5025548;28;20239;-75
2023/10/02 05:27:31;;;;;;;13.63;4.03;;;;;;;19.17;48.30;97480.50;5027318;28;20206;-76
2023/10/02 05:29:59;;;;;;;9.50;3.90;;;;;;;19.22;48.87;97483.66;5024794;28;20747;-81
2023/10/02 05:32:31;;;;;;;6.53;3.90;;;;;;;19.09;48.72;97479.38;5027152;28;20379;-78
2023/10/02 05:35:23;;;;;;;8.73;4.07;;;;;;;19.26;48.52;97492.97;5027592;28;20237;-76
2023/10/02 05:37:48;;;;;;;11.97;4.13;;;;;;;19.24;48.48;97494.03;5023884;28;20205;-76
2023/10/02 05:43:09;;;;;;;7.13;4.47;;;;;;;19.47;47.46;97498.47;5026663;28;20204;-77
2023/10/02 05:45:40;;;;;;;11.97;5.23;;;;;;;19.43;48.34;97502.28;5027335;28;20213;-76
2023/10/02 05:50:59;;;;;;;7.57;4.33;;;;;;;19.68;47.30;97498.66;5025935;28;20194;-73
2023/10/02 05:53:34;;;;;;;8.63;4.83;;;;;;;19.62;47.25;97489.44;5027038;28;20585;-77
2023/10/02 05:58:41;;;;;;;10.47;4.60;;;;;;;19.89;47.02;97502.28;5026279;28;20226;-76
2023/10/02 06:01:46;;;;;;;8.97;4.50;;;;;;;20.02;47.34;97510.94;5025581;28;20651;-76
2023/10/02 06:04:05;;;;;;;9.50;4.37;;;;;;;19.89;46.91;97518.06;5025580;28;20195;-76
2023/10/02 06:06:40;;;;;;;10.30;4.30;;;;;;;19.78;47.22;97511.00;5026857;28;20209;-75
2023/10/02 06:09:13;;;;;;;7.90;4.87;;;;;;;19.87;46.80;97515.56;5025759;28;20205;-76
2023/10/02 06:12:02;;;;;;;8.90;5.03;;;;;;;19.98;46.54;97523.47;5025730;28;20206;-74
2023/10/02 06:14:38;;;;;;;11.63;4.40;;;;;;;19.79;46.53;97531.06;5026602;28;20305;-76
2023/10/02 06:17:11;;;;;;;8.43;3.63;;;;;;;19.69;46.40;97513.47;5025066;28;20317;-75
2023/10/02 06:19:44;;;;;;;14.50;4.73;;;;;;;19.95;46.20;97528.97;5026622;28;20221;-77
2023/10/02 06:22:15;;;;;;;12.03;4.23;;;;;;;19.87;45.91;97525.22;5024147;28;20614;-77
2023/10/02 06:24:43;;;;;;;6.97;3.97;;;;;;;20.06;45.43;97530.78;5041022;28;20205;-74
2023/10/02 06:27:17;;;;;;;7.90;4.90;;;;;;;19.94;45.21;97510.69;5026277;28;20285;-75
2023/10/02 06:29:46;;;;;;;6.47;4.50;;;;;;;20.02;45.66;97538.06;5023426;28;20202;-78
2023/10/02 06:32:19;;;;;;;11.53;5.27;;;;;;;20.20;45.65;97549.84;5026827;28;20209;-79
2023/10/02 06:34:50;;;;;;;10.23;4.40;;;;;;;20.16;44.60;97516.81;5040073;28;20293;-75
2023/10/02 06:37:21;;;;;;;9.17;4.30;;;;;;;20.19;44.58;97536.78;5029603;28;20198;-76
2023/10/02 06:42:48;;;;;;;7.27;4.30;;;;;;;20.29;44.83;97524.63;5043463;28;20609;-77
2023/10/02 06:45:20;;;;;;;15.17;4.00;;;;;;;20.21;44.27;97532.28;5029646;28;20776;-75
2023/10/02 06:47:50;;;;;;;10.63;4.47;;;;;;;20.35;44.16;97534.69;5028154;28;20198;-75
2023/10/02 06:50:27;;;;;;;7.83;4.20;;;;;;;20.27;44.17;97555.50;5029039;28;20229;-76
2023/10/02 06:52:57;;;;;;;9.87;4.50;;;;;;;20.31;44.48;97554.28;5029097;28;20228;-81
2023/10/02 06:55:26;;;;;;;8.57;4.40;;;;;;;20.40;44.42;97548.34;5027949;28;20197;-75
2023/10/02 06:57:54;;;;;;;7.00;4.10;;;;;;;20.36;44.15;97543.44;5029055;28;20195;-74
2023/10/02 07:00:23;;;;;;;5.57;3.80;;;;;;;20.53;43.88;97546.41;5027548;28;20252;-79
2023/10/02 07:02:56;;;;;;;9.03;4.20;;;;;;;20.55;43.68;97544.50;5029148;28;20230;-75
2023/10/02 07:05:32;;;;;;;7.27;4.07;;;;;;;20.75;43.21;97551.69;5028426;28;20199;-76
2023/10/02 07:08:17;;;;;;;10.50;4.90;;;;;;;20.74;43.03;97557.91;5026738;28;20202;-74
2023/10/02 07:10:50;;;;;;;8.27;4.30;;;;;;;20.89;42.96;97543.56;5027974;28;20291;-82
2023/10/02 07:13:20;;;;;;;9.93;4.60;;;;;;;20.95;43.06;97556.25;5027945;28;20203;-74
2023/10/02 07:15:55;;;;;;;9.90;4.60;;;;;;;20.91;43.14;97548.69;5029170;28;20239;-74
2023/10/02 07:18:35;;;;;;;11.63;4.83;;;;;;;21.07;42.84;97554.44;5028447;28;20233;-75
2023/10/02 07:21:09;;;;;;;11.93;5.10;;;;;;;21.08;42.73;97528.97;5028329;28;20235;-75
2023/10/02 07:23:37;;;;;;;8.30;4.53;;;;;;;21.29;42.39;97556.22;5028498;28;20213;-75
2023/10/02 07:26:19;;;;;;;7.27;4.47;;;;;;;21.40;42.47;97556.16;5025817;28;20199;-77
2023/10/02 07:28:50;;;;;;;8.57;4.50;;;;;;;21.20;42.81;97547.25;5028488;28;20195;-77
2023/10/02 07:31:22;;;;;;;7.43;4.43;;;;;;;21.28;42.70;97554.53;5027566;28;20210;-74
2023/10/02 07:33:55;;;;;;;8.53;4.83;;;;;;;21.51;42.16;97566.69;5027925;28;20770;-74
2023/10/02 07:36:26;;;;;;;7.90;4.33;;;;;;;21.49;42.71;97568.63;5028406;28;20196;-75
2023/10/02 07:38:54;;;;;;;10.27;4.43;;;;;;;21.68;41.92;97576.69;5027240;28;20229;-73
2023/10/02 07:41:26;;;;;;;6.47;4.60;;;;;;;21.72;41.97;97575.50;5028561;28;20560;-74
2023/10/02 07:44:07;;;;;;;6.80;4.13;;;;;;;21.55;42.26;97581.31;5026888;28;20634;-74
2023/10/02 07:47:18;;;;;;;8.13;4.17;;;;;;;21.61;42.28;97583.44;5041020;28;20231;-81
2023/10/02 07:50:39;;;;;;;8.20;4.07;;;;;;;21.55;42.33;97536.50;5047671;28;20244;-76
2023/10/02 07:53:59;;;;;;;8.73;4.57;;;;;;;21.85;42.32;97576.19;5047497;28;20723;-82
2023/10/02 07:57:20;;;;;;;10.93;4.63;;;;;;;21.99;42.23;97586.41;5028572;28;20203;-75
2023/10/02 08:00:49;;;;;;;6.40;4.20;;;;;;;21.79;42.31;97582.78;5026693;28;20241;-75
2023/10/02 08:04:10;;;;;;;7.10;4.07;;;;;;;21.94;42.45;97591.25;5027954;28;20213;-77
2023/10/02 08:07:31;;;;;;;7.13;4.00;;;;;;;21.99;42.20;97586.41;5027883;28;20292;-75
2023/10/02 08:10:53;;;;;;;6.47;4.13;;;;;;;21.74;42.17;97597.31;5027209;28;20701;-75
2023/10/02 08:13:48;;;;;;;7.13;3.47;;;;;;;21.55;42.66;97605.88;5026256;28;20303;-74
2023/10/02 08:16:22;;;;;;;5.63;4.20;;;;;;;21.67;42.77;97583.78;5029015;28;20245;-76
2023/10/02 08:18:59;;;;;;;6.63;3.97;;;;;;;22.02;41.85;97607.28;5027451;28;20298;-76
2023/10/02 08:21:37;;;;;;;7.60;4.40;;;;;;;21.68;42.44;97605.69;5027071;28;20287;-75
2023/10/02 08:24:06;;;;;;;8.57;4.37;;;;;;;21.73;42.62;97598.25;5028080;28;20242;-73
2023/10/02 08:26:40;;;;;;;10.57;4.80;;;;;;;21.74;42.32;97608.66;5026495;28;20220;-74
2023/10/02 08:29:08;;;;;;;6.43;3.73;;;;;;;21.65;42.70;97611.22;5027036;28;20203;-78
2023/10/02 08:31:42;;;;;;;7.70;4.17;;;;;;;21.74;42.13;97607.84;5026328;28;20195;-80
2023/10/02 08:34:19;;;;;;;11.37;4.07;;;;;;;21.74;42.34;97605.22;5028914;28;20258;-78
2023/10/02 08:37:07;;;;;;;6.30;4.70;;;;;;;22.25;41.75;97600.94;5031485;28;20203;-75
2023/10/02 08:39:37;;;;;;;9.00;4.77;;;;;;;22.54;40.74;97599.34;5032658;28;20720;-77
2023/10/02 08:42:09;;;;;;;8.47;4.13;;;;;;;22.27;41.05;97614.84;5029397;28;20258;-80
2023/10/02 08:44:40;;;;;;;6.97;3.53;;;;;;;21.97;41.53;97580.44;5027153;28;20197;-77
2023/10/02 08:47:24;;;;;;;6.70;3.97;;;;;;;22.10;41.70;97594.28;5025652;28;20202;-78
2023/10/02 08:50:04;;;;;;;19.23;5.43;;;;;;;22.17;41.76;97582.28;5027580;28;20254;-77
2023/10/02 08:52:41;;;;;;;8.90;3.70;;;;;;;22.27;41.93;97603.44;5026192;28;20231;-76
2023/10/02 08:55:36;;;;;;;6.40;3.53;;;;;;;22.30;41.27;97597.91;5026587;28;20201;-77
2023/10/02 08:58:16;;;;;;;7.87;3.90;;;;;;;22.02;41.68;97599.38;5028122;28;20293;-75
2023/10/02 09:06:44;;;;;;;6.87;5.20;;;;;;;21.95;42.13;97566.53;5026983;28;20236;-79
2023/10/02 09:09:54;;;;;;;8.33;4.67;;;;;;;22.28;41.03;97594.53;5025403;28;20193;-81
2023/10/02 09:12:22;;;;;;;8.50;5.13;;;;;;;22.50;40.64;97583.88;5024262;28;20245;-77
2023/10/02 09:14:52;;;;;;;11.27;8.90;;;;;;;22.43;41.16;97604.66;5040817;28;20306;-77
2023/10/02 09:17:19;;;;;;;9.17;5.17;;;;;;;22.50;40.59;97568.03;5046534;28;20255;-78
2023/10/02 09:20:07;;;;;;;9.63;4.90;;;;;;;23.18;40.06;97610.50;5045586;28;20232;-78
2023/10/02 09:22:38;;;;;;;11.33;5.30;;;;;;;23.21;39.64;97609.38;5046989;28;20299;-78
2023/10/02 09:25:09;;;;;;;8.87;4.50;;;;;;;23.58;39.41;97610.50;5047054;28;20200;-77
2023/10/02 09:27:41;;;;;;;10.40;4.83;;;;;;;23.53;39.63;97596.00;5046009;28;20230;-81
2023/10/02 09:30:21;;;;;;;9.80;5.07;;;;;;;23.39;39.29;97618.38;5045520;28;20912;-77
2023/10/02 09:32:50;;;;;;;10.80;7.83;;;;;;;23.58;39.04;97613.13;5047913;28;20680;-76
2023/10/02 09:35:39;;;;;;;9.00;6.73;;;;;;;23.41;39.42;97608.53;5045413;28;20202;-85
2023/10/02 09:38:31;;;;;;;9.03;4.93;;;;;;;22.85;39.86;97608.13;5046959;28;20285;-77
2023/10/02 09:43:32;;;;;;;9.60;4.57;;;;;;;22.64;39.65;97600.25;5047414;28;20572;-74
2023/10/02 09:46:15;;;;;;;11.10;4.87;;;;;;;22.71;40.11;97603.19;5047343;28;20205;-77
2023/10/02 09:48:57;;;;;;;10.00;4.73;;;;;;;23.05;39.38;97609.03;5045860;28;20407;-80
2023/10/02 09:51:30;;;;;;;8.03;4.53;;;;;;;23.14;38.96;97606.44;5047093;28;20235;-74
2023/10/02 09:54:19;;;;;;;24.40;16.97;;;;;;;23.21;38.93;97607.59;5048794;28;20231;-74
2023/10/02 09:56:51;;;;;;;9.33;4.83;;;;;;;23.11;39.01;97608.50;5050711;28;20204;-76
2023/10/02 09:59:23;;;;;;;8.97;5.47;;;;;;;23.19;39.04;97598.94;5049244;28;20288;-72
2023/10/02 10:02:08;;;;;;;8.97;7.77;;;;;;;23.33;39.29;97605.69;5046931;28;20215;-74
2023/10/02 10:08:15;;;;;;;7.37;4.73;;;;;;;23.37;38.19;97610.56;5046700;28;20225;-75
2023/10/02 10:10:49;;;;;;;10.40;4.83;;;;;;;23.14;38.25;97598.50;5045603;28;20247;-82
2023/10/02 10:13:36;;;;;;;9.03;5.10;;;;;;;23.47;37.84;97592.13;5033846;28;20205;-73
2023/10/02 10:16:19;;;;;;;6.20;4.13;;;;;;;23.56;37.55;97591.28;5050539;28;20770;-74
2023/10/02 10:19:26;;;;;;;9.20;4.80;;;;;;;23.75;36.57;97586.03;5047423;28;20660;-79
2023/10/02 10:21:56;;;;;;;8.30;5.27;;;;;;;23.62;36.31;97590.72;5050726;28;20542;-82
2023/10/02 10:24:51;;;;;;;10.20;5.40;;;;;;;23.33;37.42;97581.91;5049507;28;20651;-79
2023/10/02 10:27:38;;;;;;;11.83;5.27;;;;;;;23.44;37.13;97565.94;5049402;28;20198;-85
2023/10/02 10:30:31;;;;;;;16.03;8.77;;;;;;;23.27;37.05;97571.84;5051526;28;20210;-83
2023/10/02 10:35:55;;;;;;;14.50;7.83;;;;;;;23.62;37.27;97568.75;5048925;28;20202;-76
2023/10/02 10:41:00;;;;;;;11.53;4.90;;;;;;;23.76;37.28;97568.34;5028409;28;20971;-79
2023/10/02 10:46:32;;;;;;;19.53;14.73;;;;;;;24.05;36.24;97564.72;5047473;28;20202;-80
2023/10/02 10:49:23;;;;;;;8.33;5.17;;;;;;;24.38;36.88;97558.13;5033327;28;20215;-74
2023/10/02 10:51:52;;;;;;;12.70;5.30;;;;;;;24.62;36.05;97544.44;5029784;28;20208;-82
2023/10/02 10:54:27;;;;;;;12.13;6.50;;;;;;;24.04;36.25;97554.28;5028068;28;20745;-86
2023/10/02 10:57:22;;;;;;;9.50;6.03;;;;;;;23.83;37.15;97562.34;5029201;28;20579;-78
2023/10/02 11:00:26;;;;;;;8.20;4.73;;;;;;;23.76;36.46;97555.13;5028901;28;20214;-79
2023/10/02 11:03:01;;;;;;;11.10;4.77;;;;;;;23.81;37.16;97561.66;5030406;28;20223;-86
2023/10/02 11:05:33;;;;;;;11.27;5.10;;;;;;;23.31;37.87;97565.31;5030291;28;20220;-83
2023/10/02 11:08:23;;;;;;;18.53;14.60;;;;;;;23.77;37.53;97557.63;5029569;28;20211;-80
2023/10/02 11:11:09;;;;;;;7.53;5.03;;;;;;;23.52;37.21;97560.78;5027919;28;20211;-80
2023/10/02 11:13:59;;;;;;;9.13;6.67;;;;;;;23.30;38.01;97535.41;5029233;28;20255;-84
2023/10/02 11:16:32;;;;;;;9.13;5.13;;;;;;;23.59;37.80;97561.94;5028629;28;20748;-83
2023/10/02 11:19:21;;;;;;;10.30;5.20;;;;;;;23.74;37.58;97557.88;5045984;28;20241;-82
2023/10/02 11:22:15;;;;;;;9.73;5.23;;;;;;;23.60;37.78;97555.66;5048027;28;20243;-86
2023/10/02 11:24:54;;;;;;;7.43;4.60;;;;;;;23.32;37.93;97552.00;5047567;28;20210;-84
2023/10/02 11:27:24;;;;;;;12.13;5.80;;;;;;;23.47;38.13;97560.38;5054366;28;20591;-77
2023/10/02 11:30:02;;;;;;;11.10;4.67;;;;;;;23.24;37.99;97543.06;5054467;28;20258;-75
2023/10/02 11:32:54;;;;;;;11.23;5.00;;;;;;;23.58;37.91;97562.03;5050275;28;20649;-75
2023/10/02 11:35:28;;;;;;;11.13;5.33;;;;;;;23.30;38.73;97564.50;5049173;28;20296;-73
2023/10/02 11:37:57;;;;;;;6.20;3.83;;;;;;;22.95;38.99;97566.75;5048093;28;20689;-76
2023/10/02 11:40:25;;;;;;;9.37;5.60;;;;;;;22.86;38.95;97553.47;5031105;28;20249;-79
2023/10/02 11:42:53;;;;;;;11.30;4.90;;;;;;;22.81;39.11;97563.63;5049540;28;20192;-79
2023/10/02 11:45:20;;;;;;;8.03;4.50;;;;;;;22.78;38.95;97571.81;5055732;28;20225;-74
2023/10/02 11:47:47;;;;;;;11.00;5.70;;;;;;;22.55;39.41;97540.25;5034433;28;20677;-83
2023/10/02 11:50:16;;;;;;;8.80;5.23;;;;;;;22.56;39.00;97563.06;5046847;28;20220;-74
2023/10/02 11:52:44;;;;;;;10.17;7.60;;;;;;;22.53;39.06;97568.59;5050098;28;20637;-77
2023/10/02 11:55:11;;;;;;;8.23;4.63;;;;;;;22.39;38.64;97554.91;5048496;28;20203;-80
2023/10/02 11:57:38;;;;;;;9.83;4.97;;;;;;;22.42;38.77;97563.38;5049896;28;20234;-79
2023/10/02 12:00:12;;;;;;;8.80;5.00;;;;;;;22.31;38.73;97552.91;5048698;28;20706;-75
2023/10/02 12:02:39;;;;;;;11.07;6.90;;;;;;;22.42;39.19;97566.03;5047038;28;20284;-74
2023/10/02 12:05:07;;;;;;;8.47;4.67;;;;;;;22.42;38.78;97565.22;5049030;28;20293;-82
2023/10/02 12:07:35;;;;;;;8.07;4.53;;;;;;;22.19;39.10;97561.88;5048625;28;20228;-81
2023/10/02 12:10:02;;;;;;;9.40;4.00;;;;;;;22.17;39.13;97577.00;5052402;28;20196;-74
2023/10/02 12:12:30;;;;;;;8.00;4.03;;;;;;;22.10;39.16;97554.72;5050687;28;20199;-74
2023/10/02 12:14:57;;;;;;;8.57;3.97;;;;;;;22.07;38.98;97581.34;5051435;28;20573;-74
2023/10/02 12:17:25;;;;;;;11.27;4.93;;;;;;;22.20;38.77;97555.63;5048283;28;20273;-72
2023/10/02 12:19:53;;;;;;;10.70;4.47;;;;;;;22.16;39.11;97553.34;5050507;28;20203;-75
2023/10/02 12:22:20;;;;;;;7.60;4.37;;;;;;;22.39;39.07;97544.34;5049697;28;20200;-73
2023/10/02 12:24:47;;;;;;;6.63;3.53;;;;;;;22.42;38.75;97547.56;5048517;28;20224;-72
2023/10/02 12:27:16;;;;;;;10.63;5.33;;;;;;;22.52;38.46;97548.44;5048982;28;20188;-76
2023/10/02 12:29:44;;;;;;;6.73;3.80;;;;;;;22.51;38.45;97552.06;5045757;28;20197;-78
2023/10/02 12:32:11;;;;;;;7.33;3.87;;;;;;;22.61;38.43;97542.41;5046988;28;20204;-76
2023/10/02 12:34:39;;;;;;;9.60;4.80;;;;;;;22.82;38.64;97552.94;5047828;28;20236;-77
2023/10/02 12:37:06;;;;;;;11.20;4.63;;;;;;;22.89;37.75;97540.03;5047130;28;20203;-74
2023/10/02 12:39:34;;;;;;;10.10;4.80;;;;;;;23.08;37.27;97537.44;5048090;28;20196;-75
2023/10/02 12:42:01;;;;;;;8.63;4.50;;;;;;;22.84;38.07;97497.31;5046470;28;20229;-73
2023/10/02 12:44:30;;;;;;;10.00;4.70;;;;;;;22.91;37.94;97546.00;5048246;28;20224;-73
2023/10/02 12:46:58;;;;;;;7.80;4.27;;;;;;;22.79;38.19;97541.78;5047017;28;20190;-74
2023/10/02 12:49:25;;;;;;;6.47;4.80;;;;;;;22.40;37.71;97451.81;5049564;28;20200;-83
2023/10/02 12:51:52;;;;;;;9.20;4.27;;;;;;;22.83;38.00;97532.63;5049518;28;20204;-74
2023/10/02 12:54:20;;;;;;;9.27;4.37;;;;;;;22.91;37.73;97520.44;5047947;28;20196;-73
2023/10/02 12:56:47;;;;;;;8.90;4.47;;;;;;;23.01;38.60;97517.81;5055850;28;20206;-73
2023/10/02 12:59:15;;;;;;;9.53;4.70;;;;;;;23.29;36.89;97530.25;5051611;28;20201;-74
2023/10/02 13:01:44;;;;;;;7.47;4.47;;;;;;;23.10;37.32;97522.28;5049489;28;20257;-78
2023/10/02 13:04:14;;;;;;;6.13;4.80;;;;;;;23.12;37.54;97533.56;5031491;28;20246;-75
2023/10/02 13:06:42;;;;;;;9.53;4.87;;;;;;;23.12;37.38;97521.16;5048642;28;20190;-80
2023/10/02 13:09:14;;;;;;;8.40;3.53;;;;;;;22.78;37.78;97498.69;5046602;28;20209;-85
2023/10/02 13:11:44;;;;;;;7.63;4.03;;;;;;;22.69;37.66;97469.63;5046840;28;20193;-76
2023/10/02 13:14:18;;;;;;;9.67;4.50;;;;;;;22.59;37.87;97531.13;5046316;28;20203;-78
2023/10/02 13:16:48;;;;;;;5.83;3.90;;;;;;;22.56;38.83;97531.38;5046254;28;20590;-78
2023/10/02 13:19:16;;;;;;;10.80;4.50;;;;;;;22.86;38.59;97529.72;5048627;28;20266;-74
2023/10/02 13:21:45;;;;;;;12.67;4.90;;;;;;;22.72;38.17;97508.94;5044712;28;20224;-76
2023/10/02 13:24:15;;;;;;;8.53;5.37;;;;;;;22.95;38.13;97542.13;5047739;28;20262;-75
2023/10/02 13:26:44;;;;;;;8.33;4.47;;;;;;;23.08;37.00;97537.44;5047016;28;20204;-77